createdAt,value
2022-12-25T00:01:21.344Z,97924.09
2022-12-25T00:03:50.380Z,97923.03
2022-12-25T00:06:18.203Z,97920.84
2022-12-25T00:08:45.718Z,97930.81
2022-12-25T00:11:15.207Z,97934.03
2022-12-25T00:13:42.441Z,97935.88
2022-12-25T00:16:13.024Z,97917.25
2022-12-25T00:18:40.153Z,97931.84
2022-12-25T00:21:08.641Z,97926.72
2022-12-25T00:23:35.956Z,97921.34
2022-12-25T00:26:05.321Z,97918.88
2022-12-25T00:28:32.432Z,97922.63
2022-12-25T00:30:59.615Z,97918.53
2022-12-25T00:33:26.773Z,97919.91
2022-12-25T00:35:57.954Z,97919.91
2022-12-25T00:38:27.211Z,97921.78
2022-12-25T00:40:54.569Z,97919.94
2022-12-25T00:43:22.171Z,97917.88
2022-12-25T00:45:57.326Z,97918.97
2022-12-25T00:48:25.478Z,97912.25
2022-12-25T00:50:55.471Z,97911.44
2022-12-25T00:53:23.658Z,97910.41
2022-12-25T00:55:53.346Z,97910.16
2022-12-25T00:58:20.515Z,97920.06
2022-12-25T01:00:48.301Z,97918.16
2022-12-25T01:03:16.507Z,97909.50
2022-12-25T01:05:44.320Z,97915.97
2022-12-25T01:08:11.492Z,97917.81
2022-12-25T01:10:38.622Z,97925.88
2022-12-25T01:13:07.076Z,97921.81
2022-12-25T01:15:34.190Z,97927.78
2022-12-25T01:18:07.306Z,97933.91
2022-12-25T01:20:35.410Z,97928.78
2022-12-25T01:23:02.501Z,97939.81
2022-12-25T01:25:29.590Z,97936.78
2022-12-25T01:27:56.803Z,97949.47
2022-12-25T01:30:25.310Z,97948.13
2022-12-25T01:32:52.392Z,97952.44
2022-12-25T01:35:19.506Z,97943.38
2022-12-25T01:37:46.609Z,97951.72
2022-12-25T01:40:13.888Z,97950.41
2022-12-25T01:42:41.003Z,97959.00
2022-12-25T01:45:35.011Z,97955.53
2022-12-25T01:48:06.569Z,97953.63
2022-12-25T01:50:35.793Z,97957.38
2022-12-25T01:53:04.135Z,97951.38
2022-12-25T01:55:33.042Z,97947.94
2022-12-25T01:58:00.551Z,97915.78
2022-12-25T02:00:27.739Z,97935.50
2022-12-25T02:03:14.640Z,97931.13
2022-12-25T02:05:42.183Z,97930.91
2022-12-25T02:08:11.518Z,97926.53
2022-12-25T02:10:38.803Z,97934.38
2022-12-25T02:13:07.245Z,97943.25
2022-12-25T02:15:42.366Z,97928.44
2022-12-25T02:18:16.064Z,97937.59
2022-12-25T02:21:30.065Z,97935.75
2022-12-25T02:24:27.745Z,97942.22
2022-12-25T02:27:13.731Z,97938.53
2022-12-25T02:29:52.868Z,97942.00
2022-12-25T02:32:27.613Z,97942.84
2022-12-25T02:35:01.166Z,97938.00
2022-12-25T02:37:31.091Z,97938.75
2022-12-25T02:40:02.280Z,97941.44
2022-12-25T02:42:45.756Z,97938.25
2022-12-25T02:45:16.117Z,97937.69
2022-12-25T02:47:43.233Z,97936.28
2022-12-25T02:50:11.575Z,97945.41
2022-12-25T02:52:40.298Z,97944.84
2022-12-25T02:55:11.103Z,97940.81
2022-12-25T02:57:43.778Z,97938.94
2022-12-25T03:00:12.876Z,97932.47
2022-12-25T03:02:43.364Z,97934.66
2022-12-25T03:05:14.945Z,97941.56
2022-12-25T03:07:43.158Z,97945.84
2022-12-25T03:10:14.789Z,97939.72
2022-12-25T03:12:48.659Z,97925.81
2022-12-25T03:15:19.442Z,97940.59
2022-12-25T03:17:47.961Z,97936.59
2022-12-25T03:20:15.259Z,97931.25
2022-12-25T03:22:44.372Z,97925.13
2022-12-25T03:25:12.155Z,97929.97
2022-12-25T03:27:41.385Z,97929.66
2022-12-25T03:30:10.207Z,97935.03
2022-12-25T03:32:43.195Z,97925.56
2022-12-25T03:35:19.687Z,97913.72
2022-12-25T03:38:03.666Z,97915.56
2022-12-25T03:40:38.803Z,97923.06
2022-12-25T03:43:15.759Z,97919.34
2022-12-25T03:45:46.562Z,97904.28
2022-12-25T03:48:16.595Z,97899.44
2022-12-25T03:50:48.866Z,97903.72
2022-12-25T03:53:22.928Z,97902.63
2022-12-25T03:55:50.959Z,97906.38
2022-12-25T03:58:20.117Z,97894.00
2022-12-25T04:00:47.281Z,97902.63
2022-12-25T04:03:14.440Z,97904.81
2022-12-25T04:05:41.572Z,97913.16
2022-12-25T04:08:10.048Z,97910.19
2022-12-25T04:10:37.255Z,97904.00
2022-12-25T04:13:04.374Z,97902.44
2022-12-25T04:15:31.534Z,97902.22
2022-12-25T04:17:58.690Z,97911.88
2022-12-25T04:20:25.782Z,97905.22
2022-12-25T04:22:52.875Z,97903.28
2022-12-25T04:25:21.345Z,97901.63
2022-12-25T04:27:48.444Z,97895.66
2022-12-25T04:30:15.754Z,97892.16
2022-12-25T04:32:42.866Z,97898.06
2022-12-25T04:35:10.385Z,97882.69
2022-12-25T04:37:37.470Z,97885.72
2022-12-25T04:40:05.904Z,97890.78
2022-12-25T04:42:34.371Z,97894.00
2022-12-25T04:45:01.472Z,97894.56
2022-12-25T04:47:28.584Z,97892.66
2022-12-25T04:49:55.817Z,97894.81
2022-12-25T04:52:22.923Z,97889.97
2022-12-25T04:54:50.093Z,97901.03
2022-12-25T04:57:17.208Z,97898.34
2022-12-25T04:59:45.634Z,97900.00
2022-12-25T05:02:12.828Z,97900.53
2022-12-25T05:04:40.141Z,97911.31
2022-12-25T05:07:07.240Z,97898.69
2022-12-25T05:09:34.346Z,97900.06
2022-12-25T05:12:01.426Z,97896.78
2022-12-25T05:14:28.612Z,97899.19
2022-12-25T05:16:57.339Z,97911.03
2022-12-25T05:19:24.547Z,97897.53
2022-12-25T05:21:51.635Z,97902.63
2022-12-25T05:24:18.958Z,97897.25
2022-12-25T05:26:46.072Z,97898.59
2022-12-25T05:29:13.141Z,97897.25
2022-12-25T05:31:40.316Z,97896.41
2022-12-25T05:34:08.769Z,97896.16
2022-12-25T05:36:35.854Z,97897.25
2022-12-25T05:39:03.016Z,97894.81
2022-12-25T05:41:34.158Z,97891.03
2022-12-25T05:44:02.342Z,97894.75
2022-12-25T05:46:29.500Z,97897.50
2022-12-25T05:48:56.627Z,97896.69
2022-12-25T05:51:25.127Z,97895.66
2022-12-25T05:53:52.244Z,97890.28
2022-12-25T05:56:19.337Z,97896.75
2022-12-25T05:58:46.447Z,97893.28
2022-12-25T06:01:15.952Z,97889.22
2022-12-25T06:03:43.182Z,97894.06
2022-12-25T06:06:10.840Z,97892.44
2022-12-25T06:08:39.738Z,97887.59
2022-12-25T06:11:08.021Z,97897.25
2022-12-25T06:13:35.575Z,97900.47
2022-12-25T06:16:04.224Z,97903.06
2022-12-25T06:18:31.468Z,97916.03
2022-12-25T06:20:58.576Z,97914.91
2022-12-25T06:23:25.820Z,97908.47
2022-12-25T06:25:54.285Z,97913.31
2022-12-25T06:28:21.394Z,97914.34
2022-12-25T06:30:48.511Z,97913.81
2022-12-25T06:33:15.605Z,97901.97
2022-12-25T06:35:42.760Z,97913.56
2022-12-25T06:38:09.878Z,97907.13
2022-12-25T06:40:36.994Z,97914.16
2022-12-25T06:43:05.461Z,97915.50
2022-12-25T06:45:35.060Z,97902.63
2022-12-25T06:48:02.271Z,97903.22
2022-12-25T06:50:29.378Z,97912.03
2022-12-25T06:52:56.503Z,97904.25
2022-12-25T06:55:23.596Z,97913.63
2022-12-25T06:57:50.714Z,97916.59
2022-12-25T07:00:19.605Z,97923.81
2022-12-25T07:02:48.280Z,97916.28
2022-12-25T07:05:15.625Z,97921.09
2022-12-25T07:07:42.720Z,97918.13
2022-12-25T07:10:10.501Z,97920.56
2022-12-25T07:12:37.626Z,97916.25
2022-12-25T07:15:05.660Z,97926.19
2022-12-25T07:17:34.726Z,97920.25
2022-12-25T07:20:01.945Z,97929.38
2022-12-25T07:22:29.715Z,97930.16
2022-12-25T07:24:56.816Z,97933.69
2022-12-25T07:27:24.480Z,97936.91
2022-12-25T07:29:51.566Z,97924.63
2022-12-25T07:32:18.669Z,97930.00
2022-12-25T07:34:47.109Z,97929.28
2022-12-25T07:37:14.203Z,97927.34
2022-12-25T07:39:41.292Z,97921.41
2022-12-25T07:42:08.396Z,97926.66
2022-12-25T07:44:35.491Z,97922.44
2022-12-25T07:47:02.658Z,97932.63
2022-12-25T07:49:29.787Z,97928.47
2022-12-25T07:51:58.255Z,97931.75
2022-12-25T07:54:25.361Z,97925.94
2022-12-25T07:56:52.764Z,97908.38
2022-12-25T07:59:20.414Z,97925.72
2022-12-25T08:01:49.301Z,97934.38
2022-12-25T08:04:16.620Z,97924.44
2022-12-25T08:06:43.755Z,97930.88
2022-12-25T08:09:13.238Z,97929.84
2022-12-25T08:11:44.701Z,97937.91
2022-12-25T08:14:11.838Z,97932.47
2022-12-25T08:16:38.971Z,97931.44
2022-12-25T08:19:06.079Z,97935.44
2022-12-25T08:21:33.245Z,97933.81
2022-12-25T08:24:00.365Z,97933.03
2022-12-25T08:26:28.872Z,97935.75
2022-12-25T08:28:56.160Z,97934.69
2022-12-25T08:31:25.201Z,97913.41
2022-12-25T08:33:54.791Z,97929.91
2022-12-25T08:36:22.718Z,97925.91
2022-12-25T08:38:50.027Z,97935.81
2022-12-25T08:41:17.781Z,97931.00
2022-12-25T08:43:46.615Z,97936.13
2022-12-25T08:46:13.836Z,97935.06
2022-12-25T08:48:42.558Z,97928.06
2022-12-25T08:51:12.257Z,97915.69
2022-12-25T08:53:39.345Z,97912.50
2022-12-25T08:56:06.958Z,97901.72
2022-12-25T08:58:34.428Z,97904.16
2022-12-25T09:01:03.409Z,97910.91
2022-12-25T09:03:30.859Z,97907.94
2022-12-25T09:06:02.827Z,97900.91
2022-12-25T09:08:29.937Z,97904.66
2022-12-25T09:11:00.709Z,97901.16
2022-12-25T09:13:28.030Z,97899.28
2022-12-25T09:15:55.242Z,97895.53
2022-12-25T09:18:23.818Z,97896.34
2022-12-25T09:20:57.850Z,97895.03
2022-12-25T09:23:25.230Z,97899.88
2022-12-25T09:25:52.324Z,97905.00
2022-12-25T09:28:19.542Z,97909.81
2022-12-25T09:30:49.487Z,97907.13
2022-12-25T09:33:16.911Z,97908.78
2022-12-25T09:35:53.171Z,97904.72
2022-12-25T09:38:20.288Z,97904.50
2022-12-25T09:40:47.577Z,97912.25
2022-12-25T09:43:17.438Z,97915.25
2022-12-25T09:45:44.952Z,97891.50
2022-12-25T09:48:15.361Z,97895.84
2022-12-25T09:50:47.683Z,97895.31
2022-12-25T09:53:19.132Z,97898.25
2022-12-25T09:55:52.886Z,97902.25
2022-12-25T09:58:19.998Z,97901.13
2022-12-25T10:00:54.600Z,97890.88
2022-12-25T10:03:36.404Z,97889.00
2022-12-25T10:06:13.415Z,97875.25
2022-12-25T10:08:55.716Z,97889.28
2022-12-25T10:11:35.628Z,97886.06
2022-12-25T10:14:14.147Z,97886.34
2022-12-25T10:16:51.285Z,97885.25
2022-12-25T10:19:35.071Z,97890.38
2022-12-25T10:22:11.942Z,97891.94
2022-12-25T10:24:45.018Z,97891.72
2022-12-25T10:27:18.084Z,97879.06
2022-12-25T10:29:49.889Z,97884.97
2022-12-25T10:32:16.974Z,97868.53
2022-12-25T10:34:44.112Z,97866.41
2022-12-25T10:37:12.915Z,97864.81
2022-12-25T10:39:46.015Z,97857.81
2022-12-25T10:42:30.958Z,97858.34
2022-12-25T10:44:59.578Z,97835.44
2022-12-25T10:47:30.235Z,97842.72
2022-12-25T10:49:58.841Z,97836.25
2022-12-25T10:52:28.944Z,97837.34
2022-12-25T10:54:56.329Z,97838.66
2022-12-25T10:57:25.439Z,97823.09
2022-12-25T10:59:54.351Z,97814.25
2022-12-25T11:02:25.784Z,97816.69
2022-12-25T11:05:00.508Z,97805.66
2022-12-25T11:07:30.223Z,97800.28
2022-12-25T11:10:05.267Z,97792.75
2022-12-25T11:12:36.937Z,97786.03
2022-12-25T11:15:06.724Z,97778.22
2022-12-25T11:17:35.747Z,97780.09
2022-12-25T11:20:03.165Z,97777.41
2022-12-25T11:22:31.662Z,97773.38
2022-12-25T11:25:12.131Z,97765.81
2022-12-25T11:27:39.303Z,97766.66
2022-12-25T11:30:15.837Z,97769.31
2022-12-25T11:32:46.452Z,97768.50
2022-12-25T11:35:16.386Z,97756.41
2022-12-25T11:37:47.595Z,97751.84
2022-12-25T11:40:17.529Z,97764.78
2022-12-25T11:42:49.989Z,97766.38
2022-12-25T11:45:20.635Z,97746.78
2022-12-25T11:47:51.931Z,97756.69
2022-12-25T11:50:25.178Z,97772.31
2022-12-25T11:52:54.643Z,97766.13
2022-12-25T11:55:31.452Z,97768.81
2022-12-25T11:58:02.686Z,97763.97
2022-12-25T12:00:33.362Z,97754.03
2022-12-25T12:03:06.565Z,97722.56
2022-12-25T12:05:38.554Z,97750.78
2022-12-25T12:08:09.485Z,97723.88
2022-12-25T12:10:51.057Z,97735.47
2022-12-25T12:13:32.638Z,97730.34
2022-12-25T12:15:59.833Z,97741.09
2022-12-25T12:18:31.502Z,97739.22
2022-12-25T12:21:05.476Z,97729.28
2022-12-25T12:23:36.659Z,97734.66
2022-12-25T12:26:04.398Z,97737.03
2022-12-25T12:28:43.488Z,97725.47
2022-12-25T12:31:10.691Z,97737.06
2022-12-25T12:33:41.517Z,97734.91
2022-12-25T12:36:12.956Z,97727.66
2022-12-25T12:38:43.418Z,97730.09
2022-12-25T12:41:13.268Z,97733.31
2022-12-25T12:43:43.094Z,97728.25
2022-12-25T12:46:17.778Z,97726.34
2022-12-25T12:48:48.175Z,97718.28
2022-12-25T12:51:28.748Z,97708.88
2022-12-25T12:54:15.617Z,97707.53
2022-12-25T12:56:42.747Z,97715.84
2022-12-25T12:59:10.496Z,97713.13
2022-12-25T13:01:44.894Z,97704.03
2022-12-25T13:04:36.744Z,97701.84
2022-12-25T13:07:12.930Z,97688.41
2022-12-25T13:09:55.909Z,97685.19
2022-12-25T13:12:23.752Z,97672.28
2022-12-25T13:14:51.080Z,97671.22
2022-12-25T13:17:22.452Z,97663.16
2022-12-25T13:19:54.440Z,97659.41
2022-12-25T13:22:23.929Z,97660.75
2022-12-25T13:25:00.023Z,97669.88
2022-12-25T13:27:30.871Z,97659.94
2022-12-25T13:29:59.031Z,97665.88
2022-12-25T13:32:29.700Z,97669.63
2022-12-25T13:34:57.250Z,97665.88
2022-12-25T13:37:26.796Z,97666.94
2022-12-25T13:39:56.922Z,97668.81
2022-12-25T13:42:27.510Z,97675.81
2022-12-25T13:44:56.271Z,97672.28
2022-12-25T13:47:26.448Z,97678.47
2022-12-25T13:49:55.634Z,97679.56
2022-12-25T13:52:27.830Z,97669.31
2022-12-25T13:54:57.611Z,97663.13
2022-12-25T13:57:30.063Z,97658.03
2022-12-25T13:59:57.916Z,97648.09
2022-12-25T14:02:30.773Z,97647.56
2022-12-25T14:04:58.024Z,97644.63
2022-12-25T14:07:25.764Z,97647.28
2022-12-25T14:09:58.102Z,97643.53
2022-12-25T14:12:28.902Z,97650.53
2022-12-25T14:14:58.550Z,97619.03
2022-12-25T14:17:25.891Z,97655.94
2022-12-25T14:20:01.001Z,97658.34
2022-12-25T14:22:33.096Z,97660.75
2022-12-25T14:25:00.252Z,97657.00
2022-12-25T14:27:29.239Z,97663.44
2022-12-25T14:29:59.219Z,97667.75
2022-12-25T14:32:30.054Z,97660.75
2022-12-25T14:34:59.522Z,97652.41
2022-12-25T14:37:30.802Z,97662.63
2022-12-25T14:39:59.756Z,97660.47
2022-12-25T14:42:30.661Z,97665.03
2022-12-25T14:45:04.323Z,97659.13
2022-12-25T14:47:33.673Z,97668.28
2022-12-25T14:50:01.278Z,97661.00
2022-12-25T14:52:32.883Z,97655.91
2022-12-25T14:55:02.888Z,97661.00
2022-12-25T14:57:34.355Z,97647.56
2022-12-25T15:00:07.892Z,97653.22
2022-12-25T15:02:44.532Z,97643.81
2022-12-25T15:05:31.051Z,97650.00
2022-12-25T15:08:22.005Z,97658.34
2022-12-25T15:11:05.678Z,97650.28
2022-12-25T15:13:35.025Z,97654.03
2022-12-25T15:16:08.957Z,97656.47
2022-12-25T15:18:40.017Z,97658.34
2022-12-25T15:21:15.231Z,97662.13
2022-12-25T15:23:42.686Z,97660.75
2022-12-25T15:26:13.304Z,97660.22
2022-12-25T15:28:42.070Z,97659.44
2022-12-25T15:31:19.724Z,97657.00
2022-12-25T15:33:47.169Z,97658.09
2022-12-25T15:36:14.686Z,97642.22
2022-12-25T15:38:42.196Z,97638.44
2022-12-25T15:41:13.318Z,97626.34
2022-12-25T15:43:41.884Z,97638.72
2022-12-25T15:46:09.394Z,97636.84
2022-12-25T15:48:36.571Z,97644.38
2022-12-25T15:51:03.879Z,97640.88
2022-12-25T15:53:30.992Z,97629.59
2022-12-25T15:55:58.106Z,97627.97
2022-12-25T15:58:25.241Z,97617.75
2022-12-25T16:00:53.673Z,97621.25
2022-12-25T16:03:20.799Z,97618.03
2022-12-25T16:05:48.180Z,97620.44
2022-12-25T16:08:15.261Z,97628.25
2022-12-25T16:10:42.373Z,97623.94
2022-12-25T16:13:09.477Z,97615.06
2022-12-25T16:15:37.108Z,97613.19
2022-12-25T16:18:05.855Z,97623.66
2022-12-25T16:20:35.047Z,97632.00
2022-12-25T16:23:02.155Z,97631.75
2022-12-25T16:25:29.269Z,97634.16
2022-12-25T16:27:56.401Z,97630.94
2022-12-25T16:30:23.516Z,97634.69
2022-12-25T16:32:50.668Z,97642.50
2022-12-25T16:35:19.201Z,97645.97
2022-12-25T16:37:46.303Z,97650.28
2022-12-25T16:40:13.646Z,97636.31
2022-12-25T16:42:40.764Z,97637.13
2022-12-25T16:45:08.585Z,97632.28
2022-12-25T16:47:35.731Z,97631.47
2022-12-25T16:50:05.015Z,97629.31
2022-12-25T16:52:34.337Z,97618.50
2022-12-25T16:55:02.889Z,97625.72
2022-12-25T16:57:31.327Z,97630.34
2022-12-25T16:59:58.485Z,97627.69
2022-12-25T17:02:25.784Z,97628.50
2022-12-25T17:04:53.141Z,97619.38
2022-12-25T17:07:20.317Z,97614.75
2022-12-25T17:09:49.662Z,97615.00
2022-12-25T17:12:17.133Z,97619.63
2022-12-25T17:14:44.405Z,97613.41
2022-12-25T17:17:11.495Z,97618.53
2022-12-25T17:19:39.058Z,97622.31
2022-12-25T17:22:06.193Z,97623.41
2022-12-25T17:24:33.299Z,97620.97
2022-12-25T17:27:02.052Z,97622.59
2022-12-25T17:29:29.430Z,97620.19
2022-12-25T17:31:56.619Z,97612.38
2022-12-25T17:34:23.777Z,97611.03
2022-12-25T17:36:50.967Z,97611.03
2022-12-25T17:39:18.052Z,97600.28
2022-12-25T17:41:45.204Z,97596.00
2022-12-25T17:44:13.684Z,97589.78
2022-12-25T17:46:40.848Z,97598.16
2022-12-25T17:49:13.925Z,97611.31
2022-12-25T17:51:41.023Z,97612.66
2022-12-25T17:54:09.383Z,97610.75
2022-12-25T17:56:36.805Z,97604.59
2022-12-25T17:59:05.483Z,97600.81
2022-12-25T18:01:35.368Z,97604.06
2022-12-25T18:04:03.154Z,97593.84
2022-12-25T18:06:30.489Z,97600.56
2022-12-25T18:08:57.974Z,97604.31
2022-12-25T18:11:27.574Z,97596.00
2022-12-25T18:13:55.800Z,97597.59
2022-12-25T18:16:25.112Z,97593.84
2022-12-25T18:18:53.878Z,97602.16
2022-12-25T18:21:22.251Z,97602.44
2022-12-25T18:23:49.826Z,97611.03
2022-12-25T18:26:17.659Z,97604.88
2022-12-25T18:28:45.096Z,97606.47
2022-12-25T18:31:15.307Z,97615.34
2022-12-25T18:33:43.050Z,97605.41
2022-12-25T18:36:12.940Z,97613.75
2022-12-25T18:38:40.437Z,97617.75
2022-12-25T18:41:09.317Z,97612.13
2022-12-25T18:43:53.548Z,97608.09
2022-12-25T18:46:23.738Z,97604.03
2022-12-25T18:48:51.104Z,97607.28
2022-12-25T18:51:19.571Z,97603.50
2022-12-25T18:53:46.668Z,97614.53
2022-12-25T18:56:15.770Z,97607.28
2022-12-25T18:58:43.144Z,97605.41
2022-12-25T19:01:12.472Z,97606.19
2022-12-25T19:03:39.684Z,97601.38
2022-12-25T19:06:07.482Z,97603.53
2022-12-25T19:08:35.980Z,97599.22
2022-12-25T19:11:07.102Z,97604.84
2022-12-25T19:13:34.437Z,97605.66
2022-12-25T19:16:02.349Z,97601.91
2022-12-25T19:18:30.257Z,97597.59
2022-12-25T19:21:01.437Z,97597.59
2022-12-25T19:23:28.895Z,97583.47
2022-12-25T19:25:57.413Z,97582.25
2022-12-25T19:28:24.996Z,97591.09
2022-12-25T19:30:52.578Z,97601.03
2022-12-25T19:33:20.363Z,97601.09
2022-12-25T19:35:47.655Z,97603.88
2022-12-25T19:38:15.227Z,97609.03
2022-12-25T19:40:42.492Z,97611.50
2022-12-25T19:43:10.926Z,97615.31
2022-12-25T19:45:38.099Z,97627.13
2022-12-25T19:48:05.855Z,97625.81
2022-12-25T19:50:32.960Z,97609.94
2022-12-25T19:53:00.113Z,97600.25
2022-12-25T19:55:27.209Z,97604.03
2022-12-25T19:57:54.296Z,97608.59
2022-12-25T20:00:23.215Z,97599.44
2022-12-25T20:02:50.445Z,97602.94
2022-12-25T20:05:17.888Z,97603.19
2022-12-25T20:07:45.024Z,97614.75
2022-12-25T20:10:12.148Z,97610.16
2022-12-25T20:12:39.263Z,97604.81
2022-12-25T20:15:07.909Z,97614.22
2022-12-25T20:17:36.378Z,97602.09
2022-12-25T20:20:04.124Z,97590.53
2022-12-25T20:22:31.390Z,97595.38
2022-12-25T20:24:58.505Z,97596.97
2022-12-25T20:27:25.733Z,97599.13
2022-12-25T20:29:52.859Z,97601.31
2022-12-25T20:32:20.001Z,97608.56
2022-12-25T20:34:48.550Z,97610.16
2022-12-25T20:37:15.724Z,97605.84
2022-12-25T20:39:42.828Z,97608.81
2022-12-25T20:42:09.939Z,97599.94
2022-12-25T20:44:37.786Z,97594.06
2022-12-25T20:47:05.102Z,97582.50
2022-12-25T20:49:32.377Z,97595.41
2022-12-25T20:52:05.335Z,97596.22
2022-12-25T20:54:33.286Z,97589.78
2022-12-25T20:57:00.387Z,97592.69
2022-12-25T20:59:30.874Z,97599.13
2022-12-25T21:02:02.671Z,97610.44
2022-12-25T21:04:29.972Z,97612.28
2022-12-25T21:06:57.063Z,97603.72
2022-12-25T21:09:25.540Z,97606.38
2022-12-25T21:11:52.647Z,97605.03
2022-12-25T21:14:19.745Z,97604.75
2022-12-25T21:16:46.893Z,97609.59
2022-12-25T21:19:14.028Z,97619.81
2022-12-25T21:21:41.423Z,97616.59
2022-12-25T21:24:09.731Z,97620.63
2022-12-25T21:26:44.437Z,97578.72
2022-12-25T21:29:14.841Z,97607.44
2022-12-25T21:31:41.943Z,97622.53
2022-12-25T21:34:09.034Z,97611.00
2022-12-25T21:36:36.144Z,97629.03
2022-12-25T21:39:05.623Z,97626.88
2022-12-25T21:41:35.618Z,97637.09
2022-12-25T21:44:04.957Z,97622.03
2022-12-25T21:46:32.145Z,97644.38
2022-12-25T21:49:00.498Z,97652.41
2022-12-25T21:51:30.174Z,97650.53
2022-12-25T21:53:57.358Z,97660.50
2022-12-25T21:56:24.651Z,97660.75
2022-12-25T21:58:51.762Z,97661.81
2022-12-25T22:01:20.350Z,97666.44
2022-12-25T22:03:47.536Z,97672.06
2022-12-25T22:06:20.972Z,97666.41
2022-12-25T22:08:48.917Z,97669.66
2022-12-25T22:11:16.054Z,97681.75
2022-12-25T22:13:43.231Z,97690.06
2022-12-25T22:16:10.485Z,97694.38
2022-12-25T22:18:38.957Z,97683.63
2022-12-25T22:21:06.073Z,97678.22
2022-12-25T22:23:33.180Z,97685.50
2022-12-25T22:26:00.329Z,97673.41
2022-12-25T22:28:27.868Z,97662.91
2022-12-25T22:30:56.208Z,97676.38
2022-12-25T22:33:23.408Z,97666.13
2022-12-25T22:36:01.134Z,97676.38
2022-12-25T22:38:28.251Z,97671.50
2022-12-25T22:40:55.356Z,97677.72
2022-12-25T22:43:22.575Z,97678.25
2022-12-25T22:45:49.799Z,97683.88
2022-12-25T22:48:16.898Z,97690.34
2022-12-25T22:50:43.985Z,97686.84
2022-12-25T22:53:12.459Z,97684.72
2022-12-25T22:55:39.541Z,97695.19
2022-12-25T22:58:06.639Z,97694.63
2022-12-25T23:00:33.757Z,97706.75
2022-12-25T23:03:00.988Z,97702.97
2022-12-25T23:05:28.271Z,97690.88
2022-12-25T23:07:55.574Z,97687.66
2022-12-25T23:10:24.104Z,97693.84
2022-12-25T23:12:51.233Z,97683.06
2022-12-25T23:15:18.461Z,97680.69
2022-12-25T23:17:45.558Z,97696.78
2022-12-25T23:20:14.606Z,97692.50
2022-12-25T23:22:42.180Z,97692.78
2022-12-25T23:25:14.595Z,97693.56
2022-12-25T23:27:43.696Z,97695.16
2022-12-25T23:30:12.174Z,97704.59
2022-12-25T23:32:39.728Z,97706.47
2022-12-25T23:35:07.765Z,97705.41
2022-12-25T23:37:34.887Z,97712.41
2022-12-25T23:40:02.016Z,97707.28
2022-12-25T23:42:29.193Z,97707.25
2022-12-25T23:44:57.672Z,97706.47
2022-12-25T23:47:24.769Z,97690.59
2022-12-25T23:49:51.892Z,97706.19
2022-12-25T23:52:18.991Z,97713.19
2022-12-25T23:54:46.078Z,97715.84
2022-12-25T23:57:13.204Z,97710.47
2022-12-25T23:59:40.312Z,97720.41
